sensor_id;sensor_type;location;lat;lon;timestamp;temperature;humidity
22645;DHT22;11489;50.834;6.752;2022-12-07T00:01:24;4.90;94.50
22645;DHT22;11489;50.834;6.752;2022-12-07T00:03:52;4.90;94.60
22645;DHT22;11489;50.834;6.752;2022-12-07T00:06:19;5.00;94.60
22645;DHT22;11489;50.834;6.752;2022-12-07T00:08:46;5.00;94.60
22645;DHT22;11489;50.834;6.752;2022-12-07T00:11:17;5.00;94.60
22645;DHT22;11489;50.834;6.752;2022-12-07T00:13:44;5.00;94.60
22645;DHT22;11489;50.834;6.752;2022-12-07T00:16:11;5.00;94.60
22645;DHT22;11489;50.834;6.752;2022-12-07T00:18:37;5.00;94.60
22645;DHT22;11489;50.834;6.752;2022-12-07T00:23:40;5.10;94.60
22645;DHT22;11489;50.834;6.752;2022-12-07T00:26:08;5.10;94.60
22645;DHT22;11489;50.834;6.752;2022-12-07T00:28:35;5.10;94.50
22645;DHT22;11489;50.834;6.752;2022-12-07T00:31:10;5.10;94.50
22645;DHT22;11489;50.834;6.752;2022-12-07T00:33:37;5.10;94.50
22645;DHT22;11489;50.834;6.752;2022-12-07T00:36:06;5.10;94.40
22645;DHT22;11489;50.834;6.752;2022-12-07T00:38:34;5.10;94.40
22645;DHT22;11489;50.834;6.752;2022-12-07T00:41:27;5.10;94.40
22645;DHT22;11489;50.834;6.752;2022-12-07T00:43:53;5.10;94.30
22645;DHT22;11489;50.834;6.752;2022-12-07T00:46:20;5.10;94.40
22645;DHT22;11489;50.834;6.752;2022-12-07T00:48:46;5.10;94.40
22645;DHT22;11489;50.834;6.752;2022-12-07T00:51:13;5.10;94.40
22645;DHT22;11489;50.834;6.752;2022-12-07T00:53:40;5.00;94.40
22645;DHT22;11489;50.834;6.752;2022-12-07T00:56:07;5.00;94.40
22645;DHT22;11489;50.834;6.752;2022-12-07T00:58:33;5.00;94.40
22645;DHT22;11489;50.834;6.752;2022-12-07T01:01:03;5.10;94.50
22645;DHT22;11489;50.834;6.752;2022-12-07T01:03:29;5.10;94.50
22645;DHT22;11489;50.834;6.752;2022-12-07T01:05:55;5.00;94.50
22645;DHT22;11489;50.834;6.752;2022-12-07T01:08:23;5.10;94.60
22645;DHT22;11489;50.834;6.752;2022-12-07T01:10:49;5.10;94.60
22645;DHT22;11489;50.834;6.752;2022-12-07T01:13:22;5.10;94.60
22645;DHT22;11489;50.834;6.752;2022-12-07T01:15:48;5.10;94.60
22645;DHT22;11489;50.834;6.752;2022-12-07T01:18:13;5.10;94.60
22645;DHT22;11489;50.834;6.752;2022-12-07T01:20:39;5.20;94.70
22645;DHT22;11489;50.834;6.752;2022-12-07T01:23:05;5.20;94.70
22645;DHT22;11489;50.834;6.752;2022-12-07T01:25:30;5.20;94.70
22645;DHT22;11489;50.834;6.752;2022-12-07T01:27:56;5.20;94.70
22645;DHT22;11489;50.834;6.752;2022-12-07T01:30:22;5.20;94.70
22645;DHT22;11489;50.834;6.752;2022-12-07T01:32:48;5.20;94.70
22645;DHT22;11489;50.834;6.752;2022-12-07T01:35:13;5.30;94.70
22645;DHT22;11489;50.834;6.752;2022-12-07T01:37:39;5.30;94.70
22645;DHT22;11489;50.834;6.752;2022-12-07T01:40:07;5.30;94.70
22645;DHT22;11489;50.834;6.752;2022-12-07T01:42:33;5.30;94.70
22645;DHT22;11489;50.834;6.752;2022-12-07T01:47:46;5.30;94.50
22645;DHT22;11489;50.834;6.752;2022-12-07T01:50:13;5.30;94.60
22645;DHT22;11489;50.834;6.752;2022-12-07T01:52:40;5.40;94.60
22645;DHT22;11489;50.834;6.752;2022-12-07T01:55:10;5.40;94.60
22645;DHT22;11489;50.834;6.752;2022-12-07T01:57:40;5.30;94.60
22645;DHT22;11489;50.834;6.752;2022-12-07T02:00:07;5.40;94.60
22645;DHT22;11489;50.834;6.752;2022-12-07T02:02:38;5.40;94.60
22645;DHT22;11489;50.834;6.752;2022-12-07T02:05:07;5.40;94.60
22645;DHT22;11489;50.834;6.752;2022-12-07T02:07:34;5.40;94.50
22645;DHT22;11489;50.834;6.752;2022-12-07T02:10:13;5.40;94.60
22645;DHT22;11489;50.834;6.752;2022-12-07T02:12:39;5.40;94.50
22645;DHT22;11489;50.834;6.752;2022-12-07T02:15:05;5.40;94.50
22645;DHT22;11489;50.834;6.752;2022-12-07T02:17:47;5.40;94.50
22645;DHT22;11489;50.834;6.752;2022-12-07T02:20:30;5.40;94.40
22645;DHT22;11489;50.834;6.752;2022-12-07T02:23:13;5.40;94.80
22645;DHT22;11489;50.834;6.752;2022-12-07T02:26:12;5.50;94.50
22645;DHT22;11489;50.834;6.752;2022-12-07T02:31:37;5.50;94.50
22645;DHT22;11489;50.834;6.752;2022-12-07T02:34:14;5.40;94.50
22645;DHT22;11489;50.834;6.752;2022-12-07T02:36:47;5.40;94.50
22645;DHT22;11489;50.834;6.752;2022-12-07T02:39:22;5.40;94.50
22645;DHT22;11489;50.834;6.752;2022-12-07T02:41:55;5.40;94.50
22645;DHT22;11489;50.834;6.752;2022-12-07T02:44:26;5.40;94.50
22645;DHT22;11489;50.834;6.752;2022-12-07T02:47:03;5.40;94.50
22645;DHT22;11489;50.834;6.752;2022-12-07T02:49:30;5.40;94.40
22645;DHT22;11489;50.834;6.752;2022-12-07T02:51:56;5.40;94.50
22645;DHT22;11489;50.834;6.752;2022-12-07T02:54:22;5.40;94.50
22645;DHT22;11489;50.834;6.752;2022-12-07T02:56:57;5.30;94.40
22645;DHT22;11489;50.834;6.752;2022-12-07T03:07:49;5.40;94.40
22645;DHT22;11489;50.834;6.752;2022-12-07T03:13:28;5.40;94.40
22645;DHT22;11489;50.834;6.752;2022-12-07T03:16:02;5.40;94.40
22645;DHT22;11489;50.834;6.752;2022-12-07T03:18:34;5.40;94.50
22645;DHT22;11489;50.834;6.752;2022-12-07T03:21:05;5.40;94.50
22645;DHT22;11489;50.834;6.752;2022-12-07T03:23:34;5.40;94.50
22645;DHT22;11489;50.834;6.752;2022-12-07T03:26:01;5.30;94.50
22645;DHT22;11489;50.834;6.752;2022-12-07T03:28:33;5.40;94.50
22645;DHT22;11489;50.834;6.752;2022-12-07T03:31:20;5.40;94.50
22645;DHT22;11489;50.834;6.752;2022-12-07T03:36:36;5.40;94.50
22645;DHT22;11489;50.834;6.752;2022-12-07T03:42:08;5.40;94.40
22645;DHT22;11489;50.834;6.752;2022-12-07T03:44:36;5.40;94.50
22645;DHT22;11489;50.834;6.752;2022-12-07T03:47:29;5.40;94.50
22645;DHT22;11489;50.834;6.752;2022-12-07T03:50:03;5.40;94.50
22645;DHT22;11489;50.834;6.752;2022-12-07T03:55:00;5.40;94.50
22645;DHT22;11489;50.834;6.752;2022-12-07T03:57:29;5.40;94.50
22645;DHT22;11489;50.834;6.752;2022-12-07T03:59:56;5.40;94.50
22645;DHT22;11489;50.834;6.752;2022-12-07T04:02:24;5.40;94.40
22645;DHT22;11489;50.834;6.752;2022-12-07T04:04:50;5.40;94.40
22645;DHT22;11489;50.834;6.752;2022-12-07T04:07:16;5.40;94.70
22645;DHT22;11489;50.834;6.752;2022-12-07T04:09:42;5.30;94.40
22645;DHT22;11489;50.834;6.752;2022-12-07T04:12:07;5.30;94.30
22645;DHT22;11489;50.834;6.752;2022-12-07T04:14:33;5.30;94.30
22645;DHT22;11489;50.834;6.752;2022-12-07T04:16:59;5.30;94.30
22645;DHT22;11489;50.834;6.752;2022-12-07T04:19:30;5.30;94.30
22645;DHT22;11489;50.834;6.752;2022-12-07T04:21:57;5.30;94.30
22645;DHT22;11489;50.834;6.752;2022-12-07T04:24:24;5.30;94.30
22645;DHT22;11489;50.834;6.752;2022-12-07T04:26:50;5.30;94.30
22645;DHT22;11489;50.834;6.752;2022-12-07T04:29:16;5.20;94.30
22645;DHT22;11489;50.834;6.752;2022-12-07T04:31:42;5.20;94.30
22645;DHT22;11489;50.834;6.752;2022-12-07T04:34:08;5.20;94.20
22645;DHT22;11489;50.834;6.752;2022-12-07T04:36:35;5.20;94.20
22645;DHT22;11489;50.834;6.752;2022-12-07T04:39:01;5.20;94.20
22645;DHT22;11489;50.834;6.752;2022-12-07T04:41:27;5.10;94.20
22645;DHT22;11489;50.834;6.752;2022-12-07T04:46:20;5.10;94.10
22645;DHT22;11489;50.834;6.752;2022-12-07T04:48:46;5.10;94.10
22645;DHT22;11489;50.834;6.752;2022-12-07T04:51:11;5.00;94.10
22645;DHT22;11489;50.834;6.752;2022-12-07T04:53:37;5.10;94.10
22645;DHT22;11489;50.834;6.752;2022-12-07T04:56:03;5.00;94.10
22645;DHT22;11489;50.834;6.752;2022-12-07T04:58:29;5.00;94.00
22645;DHT22;11489;50.834;6.752;2022-12-07T05:00:55;4.90;93.90
22645;DHT22;11489;50.834;6.752;2022-12-07T05:03:20;4.90;93.90
22645;DHT22;11489;50.834;6.752;2022-12-07T05:05:46;4.90;93.90
22645;DHT22;11489;50.834;6.752;2022-12-07T05:08:12;4.80;93.80
22645;DHT22;11489;50.834;6.752;2022-12-07T05:10:37;4.80;93.80
22645;DHT22;11489;50.834;6.752;2022-12-07T05:13:03;4.70;93.70
22645;DHT22;11489;50.834;6.752;2022-12-07T05:15:28;4.70;93.70
22645;DHT22;11489;50.834;6.752;2022-12-07T05:17:54;4.60;93.70
22645;DHT22;11489;50.834;6.752;2022-12-07T05:20:20;4.60;93.80
22645;DHT22;11489;50.834;6.752;2022-12-07T05:22:45;4.50;93.80
22645;DHT22;11489;50.834;6.752;2022-12-07T05:25:11;4.50;93.80
22645;DHT22;11489;50.834;6.752;2022-12-07T05:27:36;4.40;93.80
22645;DHT22;11489;50.834;6.752;2022-12-07T05:30:03;4.40;93.80
22645;DHT22;11489;50.834;6.752;2022-12-07T05:32:29;4.40;93.90
22645;DHT22;11489;50.834;6.752;2022-12-07T05:34:55;4.30;94.00
22645;DHT22;11489;50.834;6.752;2022-12-07T05:37:20;4.30;94.10
22645;DHT22;11489;50.834;6.752;2022-12-07T05:39:46;4.30;94.20
22645;DHT22;11489;50.834;6.752;2022-12-07T05:42:11;4.30;94.20
22645;DHT22;11489;50.834;6.752;2022-12-07T05:44:41;4.30;94.30
22645;DHT22;11489;50.834;6.752;2022-12-07T05:47:07;4.30;94.40
22645;DHT22;11489;50.834;6.752;2022-12-07T05:49:33;4.30;94.40
22645;DHT22;11489;50.834;6.752;2022-12-07T05:51:59;4.40;94.50
22645;DHT22;11489;50.834;6.752;2022-12-07T05:54:25;4.30;94.40
22645;DHT22;11489;50.834;6.752;2022-12-07T05:56:50;4.40;94.40
22645;DHT22;11489;50.834;6.752;2022-12-07T05:59:16;4.40;94.70
22645;DHT22;11489;50.834;6.752;2022-12-07T06:01:59;4.40;94.50
22645;DHT22;11489;50.834;6.752;2022-12-07T06:04:28;4.40;94.60
22645;DHT22;11489;50.834;6.752;2022-12-07T06:06:54;4.40;94.70
22645;DHT22;11489;50.834;6.752;2022-12-07T06:09:21;4.40;94.80
22645;DHT22;11489;50.834;6.752;2022-12-07T06:11:46;4.50;94.80
22645;DHT22;11489;50.834;6.752;2022-12-07T06:14:31;4.50;94.80
22645;DHT22;11489;50.834;6.752;2022-12-07T06:16:57;4.50;94.70
22645;DHT22;11489;50.834;6.752;2022-12-07T06:19:23;4.50;94.60
22645;DHT22;11489;50.834;6.752;2022-12-07T06:21:48;4.50;94.60
22645;DHT22;11489;50.834;6.752;2022-12-07T06:24:15;4.50;94.60
22645;DHT22;11489;50.834;6.752;2022-12-07T06:26:41;4.50;94.60
22645;DHT22;11489;50.834;6.752;2022-12-07T06:29:07;4.50;94.60
22645;DHT22;11489;50.834;6.752;2022-12-07T06:31:33;4.50;94.70
22645;DHT22;11489;50.834;6.752;2022-12-07T06:34:03;4.50;94.60
22645;DHT22;11489;50.834;6.752;2022-12-07T06:36:29;4.50;94.90
22645;DHT22;11489;50.834;6.752;2022-12-07T06:38:55;4.50;94.60
22645;DHT22;11489;50.834;6.752;2022-12-07T06:41:22;4.50;94.50
22645;DHT22;11489;50.834;6.752;2022-12-07T06:43:48;4.50;94.50
22645;DHT22;11489;50.834;6.752;2022-12-07T06:46:14;4.50;94.50
22645;DHT22;11489;50.834;6.752;2022-12-07T06:48:41;4.50;94.50
22645;DHT22;11489;50.834;6.752;2022-12-07T06:51:07;4.50;94.50
22645;DHT22;11489;50.834;6.752;2022-12-07T06:53:33;4.50;94.50
22645;DHT22;11489;50.834;6.752;2022-12-07T06:55:59;4.50;94.50
22645;DHT22;11489;50.834;6.752;2022-12-07T06:58:24;4.50;94.50
22645;DHT22;11489;50.834;6.752;2022-12-07T07:00:50;4.50;94.50
22645;DHT22;11489;50.834;6.752;2022-12-07T07:03:16;4.50;94.50
22645;DHT22;11489;50.834;6.752;2022-12-07T07:05:43;4.50;94.50
22645;DHT22;11489;50.834;6.752;2022-12-07T07:08:08;4.50;94.50
22645;DHT22;11489;50.834;6.752;2022-12-07T07:10:34;4.50;94.50
22645;DHT22;11489;50.834;6.752;2022-12-07T07:13:00;4.50;94.40
22645;DHT22;11489;50.834;6.752;2022-12-07T07:15:26;4.50;94.40
22645;DHT22;11489;50.834;6.752;2022-12-07T07:17:52;4.50;94.40
22645;DHT22;11489;50.834;6.752;2022-12-07T07:20:18;4.40;94.40
22645;DHT22;11489;50.834;6.752;2022-12-07T07:22:43;4.40;94.30
22645;DHT22;11489;50.834;6.752;2022-12-07T07:25:09;4.40;94.40
22645;DHT22;11489;50.834;6.752;2022-12-07T07:27:35;4.40;94.40
22645;DHT22;11489;50.834;6.752;2022-12-07T07:30:00;4.40;94.40
22645;DHT22;11489;50.834;6.752;2022-12-07T07:32:26;4.40;94.50
22645;DHT22;11489;50.834;6.752;2022-12-07T07:34:52;4.40;94.50
22645;DHT22;11489;50.834;6.752;2022-12-07T07:37:18;4.40;94.50
22645;DHT22;11489;50.834;6.752;2022-12-07T07:39:43;4.40;94.60
22645;DHT22;11489;50.834;6.752;2022-12-07T07:42:09;4.40;94.60
22645;DHT22;11489;50.834;6.752;2022-12-07T07:44:35;4.40;94.70
22645;DHT22;11489;50.834;6.752;2022-12-07T07:47:00;4.40;94.70
22645;DHT22;11489;50.834;6.752;2022-12-07T07:49:26;4.50;94.80
22645;DHT22;11489;50.834;6.752;2022-12-07T07:51:52;4.40;94.70
22645;DHT22;11489;50.834;6.752;2022-12-07T07:54:18;4.50;94.80
22645;DHT22;11489;50.834;6.752;2022-12-07T07:56:43;4.50;94.80
22645;DHT22;11489;50.834;6.752;2022-12-07T07:59:09;4.50;94.70
22645;DHT22;11489;50.834;6.752;2022-12-07T08:01:35;4.50;94.70
22645;DHT22;11489;50.834;6.752;2022-12-07T08:04:00;4.50;94.60
22645;DHT22;11489;50.834;6.752;2022-12-07T08:06:26;4.50;94.50
22645;DHT22;11489;50.834;6.752;2022-12-07T08:08:52;4.50;94.50
22645;DHT22;11489;50.834;6.752;2022-12-07T08:11:18;4.40;94.40
22645;DHT22;11489;50.834;6.752;2022-12-07T08:13:46;4.40;94.40
22645;DHT22;11489;50.834;6.752;2022-12-07T08:16:15;4.40;94.30
22645;DHT22;11489;50.834;6.752;2022-12-07T08:18:41;4.40;94.30
22645;DHT22;11489;50.834;6.752;2022-12-07T08:21:10;4.30;94.30
22645;DHT22;11489;50.834;6.752;2022-12-07T08:23:36;4.30;94.30
22645;DHT22;11489;50.834;6.752;2022-12-07T08:26:14;4.30;94.20
22645;DHT22;11489;50.834;6.752;2022-12-07T08:28:40;4.20;94.20
22645;DHT22;11489;50.834;6.752;2022-12-07T08:31:11;4.30;94.40
22645;DHT22;11489;50.834;6.752;2022-12-07T08:33:38;4.20;94.60
22645;DHT22;11489;50.834;6.752;2022-12-07T08:36:06;4.30;94.80
22645;DHT22;11489;50.834;6.752;2022-12-07T08:38:33;4.30;95.00
22645;DHT22;11489;50.834;6.752;2022-12-07T08:40:59;4.40;95.10
22645;DHT22;11489;50.834;6.752;2022-12-07T08:43:25;4.40;95.10
22645;DHT22;11489;50.834;6.752;2022-12-07T08:48:56;4.60;95.30
22645;DHT22;11489;50.834;6.752;2022-12-07T08:51:23;4.60;95.30
22645;DHT22;11489;50.834;6.752;2022-12-07T08:53:50;4.70;95.30
22645;DHT22;11489;50.834;6.752;2022-12-07T08:56:17;4.80;95.30
22645;DHT22;11489;50.834;6.752;2022-12-07T08:58:43;4.80;95.20
22645;DHT22;11489;50.834;6.752;2022-12-07T09:01:09;4.80;95.10
22645;DHT22;11489;50.834;6.752;2022-12-07T09:03:35;4.90;95.10
22645;DHT22;11489;50.834;6.752;2022-12-07T09:06:01;4.90;95.10
22645;DHT22;11489;50.834;6.752;2022-12-07T09:08:33;4.90;95.20
22645;DHT22;11489;50.834;6.752;2022-12-07T09:10:59;5.00;95.30
22645;DHT22;11489;50.834;6.752;2022-12-07T09:13:25;5.10;95.50
22645;DHT22;11489;50.834;6.752;2022-12-07T09:15:58;5.10;95.60
22645;DHT22;11489;50.834;6.752;2022-12-07T09:18:23;5.20;95.80
22645;DHT22;11489;50.834;6.752;2022-12-07T09:20:50;5.40;96.10
22645;DHT22;11489;50.834;6.752;2022-12-07T09:23:16;5.50;96.40
22645;DHT22;11489;50.834;6.752;2022-12-07T09:25:42;5.70;96.50
22645;DHT22;11489;50.834;6.752;2022-12-07T09:28:08;5.80;96.40
22645;DHT22;11489;50.834;6.752;2022-12-07T09:30:34;5.90;96.20
22645;DHT22;11489;50.834;6.752;2022-12-07T09:32:59;6.00;96.00
22645;DHT22;11489;50.834;6.752;2022-12-07T09:35:26;6.10;95.80
22645;DHT22;11489;50.834;6.752;2022-12-07T09:37:51;6.20;95.60
22645;DHT22;11489;50.834;6.752;2022-12-07T09:40:19;6.30;95.60
22645;DHT22;11489;50.834;6.752;2022-12-07T09:42:49;6.30;95.80
22645;DHT22;11489;50.834;6.752;2022-12-07T09:45:26;6.40;95.90
22645;DHT22;11489;50.834;6.752;2022-12-07T09:47:54;6.50;95.90
22645;DHT22;11489;50.834;6.752;2022-12-07T09:50:23;6.60;95.70
22645;DHT22;11489;50.834;6.752;2022-12-07T09:52:51;6.70;95.60
22645;DHT22;11489;50.834;6.752;2022-12-07T09:55:25;6.80;95.50
22645;DHT22;11489;50.834;6.752;2022-12-07T09:57:52;6.90;95.60
22645;DHT22;11489;50.834;6.752;2022-12-07T10:00:20;7.00;95.90
22645;DHT22;11489;50.834;6.752;2022-12-07T10:03:00;7.10;96.00
22645;DHT22;11489;50.834;6.752;2022-12-07T10:05:32;7.20;95.90
22645;DHT22;11489;50.834;6.752;2022-12-07T10:08:00;7.30;95.50
22645;DHT22;11489;50.834;6.752;2022-12-07T10:10:31;7.40;95.00
22645;DHT22;11489;50.834;6.752;2022-12-07T10:13:06;7.40;94.70
22645;DHT22;11489;50.834;6.752;2022-12-07T10:16:02;7.40;94.60
22645;DHT22;11489;50.834;6.752;2022-12-07T10:21:22;7.50;94.80
22645;DHT22;11489;50.834;6.752;2022-12-07T10:24:08;7.60;94.20
22645;DHT22;11489;50.834;6.752;2022-12-07T10:26:51;7.60;94.00
22645;DHT22;11489;50.834;6.752;2022-12-07T10:29:30;7.50;93.70
22645;DHT22;11489;50.834;6.752;2022-12-07T10:34:42;7.50;93.60
22645;DHT22;11489;50.834;6.752;2022-12-07T10:37:16;7.50;94.10
22645;DHT22;11489;50.834;6.752;2022-12-07T10:39:57;7.40;94.00
22645;DHT22;11489;50.834;6.752;2022-12-07T10:42:25;7.50;93.80
22645;DHT22;11489;50.834;6.752;2022-12-07T10:45:26;7.50;94.00
22645;DHT22;11489;50.834;6.752;2022-12-07T10:48:08;7.50;93.40
22645;DHT22;11489;50.834;6.752;2022-12-07T10:53:54;7.50;94.30
22645;DHT22;11489;50.834;6.752;2022-12-07T10:59:24;7.70;95.00
22645;DHT22;11489;50.834;6.752;2022-12-07T11:02:11;7.80;96.00
22645;DHT22;11489;50.834;6.752;2022-12-07T11:08:56;8.30;96.20
22645;DHT22;11489;50.834;6.752;2022-12-07T11:13:25;8.70;95.80
22645;DHT22;11489;50.834;6.752;2022-12-07T11:18:51;9.00;94.90
22645;DHT22;11489;50.834;6.752;2022-12-07T11:21:30;9.10;94.40
22645;DHT22;11489;50.834;6.752;2022-12-07T11:24:16;9.10;94.30
22645;DHT22;11489;50.834;6.752;2022-12-07T11:27:20;9.20;94.20
22645;DHT22;11489;50.834;6.752;2022-12-07T11:30:12;9.20;93.20
22645;DHT22;11489;50.834;6.752;2022-12-07T11:33:10;9.20;92.40
22645;DHT22;11489;50.834;6.752;2022-12-07T11:36:05;9.00;91.50
22645;DHT22;11489;50.834;6.752;2022-12-07T11:38:47;8.90;92.10
22645;DHT22;11489;50.834;6.752;2022-12-07T11:41:22;8.80;92.80
22645;DHT22;11489;50.834;6.752;2022-12-07T11:46:42;8.60;92.30
22645;DHT22;11489;50.834;6.752;2022-12-07T11:49:26;8.50;92.40
22645;DHT22;11489;50.834;6.752;2022-12-07T11:51:55;8.40;92.40
22645;DHT22;11489;50.834;6.752;2022-12-07T11:54:29;8.30;92.40
22645;DHT22;11489;50.834;6.752;2022-12-07T11:57:02;8.10;92.40
22645;DHT22;11489;50.834;6.752;2022-12-07T11:59:39;8.10;92.50
22645;DHT22;11489;50.834;6.752;2022-12-07T12:02:15;8.00;92.30
22645;DHT22;11489;50.834;6.752;2022-12-07T12:04:55;7.90;92.50
22645;DHT22;11489;50.834;6.752;2022-12-07T12:07:26;7.80;92.70
22645;DHT22;11489;50.834;6.752;2022-12-07T12:09:56;7.70;92.80
22645;DHT22;11489;50.834;6.752;2022-12-07T12:18:22;7.60;92.50
22645;DHT22;11489;50.834;6.752;2022-12-07T12:20:58;7.50;92.50
22645;DHT22;11489;50.834;6.752;2022-12-07T12:26:20;7.40;92.80
22645;DHT22;11489;50.834;6.752;2022-12-07T12:28:50;7.30;92.90
22645;DHT22;11489;50.834;6.752;2022-12-07T12:33:52;7.20;93.10
22645;DHT22;11489;50.834;6.752;2022-12-07T12:36:44;7.10;92.90
22645;DHT22;11489;50.834;6.752;2022-12-07T12:39:15;7.10;93.00
22645;DHT22;11489;50.834;6.752;2022-12-07T12:54:25;7.10;93.60
22645;DHT22;11489;50.834;6.752;2022-12-07T12:59:32;7.10;93.80
22645;DHT22;11489;50.834;6.752;2022-12-07T13:02:15;7.10;94.00
22645;DHT22;11489;50.834;6.752;2022-12-07T13:05:01;7.20;94.50
22645;DHT22;11489;50.834;6.752;2022-12-07T13:15:49;7.70;94.60
22645;DHT22;11489;50.834;6.752;2022-12-07T13:20:53;7.80;93.30
22645;DHT22;11489;50.834;6.752;2022-12-07T13:23:24;7.80;93.20
22645;DHT22;11489;50.834;6.752;2022-12-07T13:26:16;7.80;93.00
22645;DHT22;11489;50.834;6.752;2022-12-07T13:28:48;7.70;92.40
22645;DHT22;11489;50.834;6.752;2022-12-07T13:33:46;7.40;92.50
22645;DHT22;11489;50.834;6.752;2022-12-07T13:36:20;7.30;92.50
22645;DHT22;11489;50.834;6.752;2022-12-07T13:39:00;7.20;92.60
22645;DHT22;11489;50.834;6.752;2022-12-07T13:41:35;7.10;92.50
22645;DHT22;11489;50.834;6.752;2022-12-07T13:44:15;6.90;92.40
22645;DHT22;11489;50.834;6.752;2022-12-07T13:49:32;6.60;92.60
22645;DHT22;11489;50.834;6.752;2022-12-07T13:52:19;6.50;92.80
22645;DHT22;11489;50.834;6.752;2022-12-07T13:54:55;6.40;93.00
22645;DHT22;11489;50.834;6.752;2022-12-07T13:57:22;6.30;93.30
22645;DHT22;11489;50.834;6.752;2022-12-07T13:59:49;6.30;93.40
22645;DHT22;11489;50.834;6.752;2022-12-07T14:02:31;6.20;93.50
22645;DHT22;11489;50.834;6.752;2022-12-07T14:05:14;6.20;93.50
22645;DHT22;11489;50.834;6.752;2022-12-07T14:07:56;6.20;93.50
22645;DHT22;11489;50.834;6.752;2022-12-07T14:10:25;6.20;93.60
22645;DHT22;11489;50.834;6.752;2022-12-07T14:12:51;6.10;93.80
22645;DHT22;11489;50.834;6.752;2022-12-07T14:15:27;6.10;93.80
22645;DHT22;11489;50.834;6.752;2022-12-07T14:17:55;6.10;93.70
22645;DHT22;11489;50.834;6.752;2022-12-07T14:22:57;6.10;93.70
22645;DHT22;11489;50.834;6.752;2022-12-07T14:25:24;6.10;93.80
22645;DHT22;11489;50.834;6.752;2022-12-07T14:28:00;6.10;93.90
22645;DHT22;11489;50.834;6.752;2022-12-07T14:30:29;6.10;93.90
22645;DHT22;11489;50.834;6.752;2022-12-07T14:32:59;6.10;93.90
22645;DHT22;11489;50.834;6.752;2022-12-07T14:35:25;6.10;93.90
22645;DHT22;11489;50.834;6.752;2022-12-07T14:37:51;6.10;93.90
22645;DHT22;11489;50.834;6.752;2022-12-07T14:40:22;6.10;93.90
22645;DHT22;11489;50.834;6.752;2022-12-07T14:42:52;6.10;93.90
22645;DHT22;11489;50.834;6.752;2022-12-07T14:45:22;6.10;93.90
22645;DHT22;11489;50.834;6.752;2022-12-07T14:47:48;6.10;93.90
22645;DHT22;11489;50.834;6.752;2022-12-07T14:50:19;6.10;93.80
22645;DHT22;11489;50.834;6.752;2022-12-07T14:53:00;6.10;93.70
22645;DHT22;11489;50.834;6.752;2022-12-07T14:55:29;6.10;93.60
22645;DHT22;11489;50.834;6.752;2022-12-07T14:57:56;6.10;93.60
22645;DHT22;11489;50.834;6.752;2022-12-07T15:00:27;6.10;93.70
22645;DHT22;11489;50.834;6.752;2022-12-07T15:02:53;6.00;93.60
22645;DHT22;11489;50.834;6.752;2022-12-07T15:05:19;6.00;93.60
22645;DHT22;11489;50.834;6.752;2022-12-07T15:07:45;6.00;93.60
22645;DHT22;11489;50.834;6.752;2022-12-07T15:12:41;6.00;93.50
22645;DHT22;11489;50.834;6.752;2022-12-07T15:15:08;5.90;93.50
22645;DHT22;11489;50.834;6.752;2022-12-07T15:17:33;5.90;93.40
22645;DHT22;11489;50.834;6.752;2022-12-07T15:19:59;5.90;93.30
22645;DHT22;11489;50.834;6.752;2022-12-07T15:22:25;5.80;93.30
22645;DHT22;11489;50.834;6.752;2022-12-07T15:24:50;5.80;93.30
22645;DHT22;11489;50.834;6.752;2022-12-07T15:27:16;5.80;93.40
22645;DHT22;11489;50.834;6.752;2022-12-07T15:29:41;5.70;93.40
22645;DHT22;11489;50.834;6.752;2022-12-07T15:32:07;5.70;93.70
22645;DHT22;11489;50.834;6.752;2022-12-07T15:34:33;5.70;93.50
22645;DHT22;11489;50.834;6.752;2022-12-07T15:36:59;5.60;93.50
22645;DHT22;11489;50.834;6.752;2022-12-07T15:39:25;5.60;93.50
22645;DHT22;11489;50.834;6.752;2022-12-07T15:41:50;5.60;93.60
22645;DHT22;11489;50.834;6.752;2022-12-07T15:44:16;5.60;93.60
22645;DHT22;11489;50.834;6.752;2022-12-07T15:47:01;5.60;93.60
22645;DHT22;11489;50.834;6.752;2022-12-07T15:49:27;5.60;93.70
22645;DHT22;11489;50.834;6.752;2022-12-07T15:51:53;5.60;93.70
22645;DHT22;11489;50.834;6.752;2022-12-07T15:54:23;5.50;93.70
22645;DHT22;11489;50.834;6.752;2022-12-07T15:56:48;5.50;93.70
22645;DHT22;11489;50.834;6.752;2022-12-07T15:59:15;5.50;93.80
22645;DHT22;11489;50.834;6.752;2022-12-07T16:01:41;5.50;93.80
22645;DHT22;11489;50.834;6.752;2022-12-07T16:04:07;5.50;93.90
22645;DHT22;11489;50.834;6.752;2022-12-07T16:06:32;5.50;93.90
22645;DHT22;11489;50.834;6.752;2022-12-07T16:08:58;5.50;93.90
22645;DHT22;11489;50.834;6.752;2022-12-07T16:11:24;5.50;93.90
22645;DHT22;11489;50.834;6.752;2022-12-07T16:13:50;5.50;93.90
22645;DHT22;11489;50.834;6.752;2022-12-07T16:16:17;5.50;93.70
22645;DHT22;11489;50.834;6.752;2022-12-07T16:18:44;5.50;93.50
22645;DHT22;11489;50.834;6.752;2022-12-07T16:21:10;5.40;93.40
22645;DHT22;11489;50.834;6.752;2022-12-07T16:23:37;5.40;93.30
22645;DHT22;11489;50.834;6.752;2022-12-07T16:26:07;5.30;93.30
22645;DHT22;11489;50.834;6.752;2022-12-07T16:28:34;5.20;93.30
22645;DHT22;11489;50.834;6.752;2022-12-07T16:31:14;5.20;93.30
22645;DHT22;11489;50.834;6.752;2022-12-07T16:33:41;5.10;93.30
22645;DHT22;11489;50.834;6.752;2022-12-07T16:36:09;5.10;93.40
22645;DHT22;11489;50.834;6.752;2022-12-07T16:38:35;5.00;93.40
22645;DHT22;11489;50.834;6.752;2022-12-07T16:41:02;5.00;93.40
22645;DHT22;11489;50.834;6.752;2022-12-07T16:43:27;4.90;93.50
22645;DHT22;11489;50.834;6.752;2022-12-07T16:45:53;4.90;93.50
22645;DHT22;11489;50.834;6.752;2022-12-07T16:48:19;4.90;93.60
22645;DHT22;11489;50.834;6.752;2022-12-07T16:50:45;4.80;93.60
22645;DHT22;11489;50.834;6.752;2022-12-07T16:53:13;4.80;93.60
22645;DHT22;11489;50.834;6.752;2022-12-07T16:55:41;4.80;93.70
22645;DHT22;11489;50.834;6.752;2022-12-07T16:58:08;4.80;93.80
22645;DHT22;11489;50.834;6.752;2022-12-07T17:00:33;4.70;93.80
22645;DHT22;11489;50.834;6.752;2022-12-07T17:02:59;4.70;93.90
22645;DHT22;11489;50.834;6.752;2022-12-07T17:05:26;4.70;93.90
22645;DHT22;11489;50.834;6.752;2022-12-07T17:07:53;4.70;94.00
22645;DHT22;11489;50.834;6.752;2022-12-07T17:10:19;4.70;94.00
22645;DHT22;11489;50.834;6.752;2022-12-07T17:12:45;4.70;94.10
22645;DHT22;11489;50.834;6.752;2022-12-07T17:15:12;4.70;94.10
22645;DHT22;11489;50.834;6.752;2022-12-07T17:17:58;4.70;94.20
22645;DHT22;11489;50.834;6.752;2022-12-07T17:20:26;4.80;94.20
22645;DHT22;11489;50.834;6.752;2022-12-07T17:22:53;4.80;94.20
22645;DHT22;11489;50.834;6.752;2022-12-07T17:25:19;4.80;94.30
22645;DHT22;11489;50.834;6.752;2022-12-07T17:27:45;4.80;94.30
22645;DHT22;11489;50.834;6.752;2022-12-07T17:30:12;4.80;94.30
22645;DHT22;11489;50.834;6.752;2022-12-07T17:32:37;4.80;94.30
22645;DHT22;11489;50.834;6.752;2022-12-07T17:35:04;4.80;94.30
22645;DHT22;11489;50.834;6.752;2022-12-07T17:37:31;4.90;94.40
22645;DHT22;11489;50.834;6.752;2022-12-07T17:39:57;4.90;94.40
22645;DHT22;11489;50.834;6.752;2022-12-07T17:42:26;4.90;94.40
22645;DHT22;11489;50.834;6.752;2022-12-07T17:45:04;4.90;94.40